Time;durP1;ratioP1;P1;durP2;ratioP2;P2;SDS_P1;SDS_P2;PMS_P1;PMS_P2;Temp;Humidity;BMP_temperature;BMP_pressure;BME280_temperature;BME280_humidity;BME280_pressure;Samples;Min_cycle;Max_cycle;Signal;HPM_P1;HPM_P2
2023/06/19 00:01:17;;;;;;;6.35;1.38;;;;;;;-146.27;62.49;80518.44;5019449;28;20025;-68
2023/06/19 00:03:43;;;;;;;4.50;1.23;;;;;;;-146.27;63.43;80568.63;5020134;28;20504;-67
2023/06/19 00:06:08;;;;;;;3.17;0.90;;;;;;;-146.27;63.94;80548.56;5020103;28;20056;-67
2023/06/19 00:08:34;;;;;;;2.70;1.70;;;;;;;-146.27;64.08;80562.63;5017460;28;20029;-67
2023/06/19 00:10:59;;;;;;;2.75;1.20;;;;;;;-146.27;64.65;80542.53;5017753;28;20084;-68
2023/06/19 00:13:25;;;;;;;4.22;0.98;;;;;;;-146.27;65.43;80600.75;5025472;28;20386;-68
2023/06/19 00:15:50;;;;;;;5.03;1.20;;;;;;;-146.27;66.72;80648.97;5025517;28;20112;-68
2023/06/19 00:18:17;;;;;;;1.40;1.00;;;;;;;-146.27;67.56;80701.16;5019092;28;20028;-68
2023/06/19 00:20:45;;;;;;;1.60;1.00;;;;;;;-146.27;68.22;80705.19;5020125;28;20021;-68
2023/06/19 00:23:13;;;;;;;2.40;1.33;;;;;;;-146.27;68.55;80739.31;5019762;28;20554;-68
2023/06/19 00:25:40;;;;;;;2.42;1.05;;;;;;;-146.27;69.91;80777.47;5019015;28;20067;-68
2023/06/19 00:28:13;;;;;;;2.00;1.30;;;;;;;-146.27;70.28;80781.47;5023650;28;20034;-69
2023/06/19 00:30:38;;;;;;;3.38;1.58;;;;;;;-146.27;72.29;80841.72;5021446;28;20026;-70
2023/06/19 00:33:05;;;;;;;1.83;1.70;;;;;;;-146.27;72.83;80877.88;5017197;28;20033;-70
2023/06/19 00:35:30;;;;;;;2.13;1.70;;;;;;;-146.27;73.70;80980.28;5018871;28;20021;-69
2023/06/19 00:37:55;;;;;;;4.05;1.90;;;;;;;-146.27;73.52;80877.88;5018643;28;20452;-69
2023/06/19 00:40:28;;;;;;;2.92;2.03;;;;;;;-146.27;73.41;80853.78;5023899;28;20090;-68
2023/06/19 00:42:54;;;;;;;2.45;1.77;;;;;;;-146.27;73.77;80873.84;5018480;28;20062;-69
2023/06/19 00:45:20;;;;;;;2.58;1.90;;;;;;;-146.27;75.00;80984.28;5020978;28;20072;-69
2023/06/19 00:47:45;;;;;;;2.28;1.80;;;;;;;-146.27;75.35;80968.22;5023128;28;20053;-68
2023/06/19 00:50:11;;;;;;;2.17;1.80;;;;;;;-146.27;74.64;80932.09;5022715;28;20485;-67
2023/06/19 00:52:37;;;;;;;2.40;1.35;;;;;;;-146.27;74.39;80924.06;5023105;28;20060;-67
2023/06/19 00:55:04;;;;;;;4.50;2.05;;;;;;;-146.27;75.44;80970.25;5023945;28;20120;-68
2023/06/19 00:57:31;;;;;;;4.78;2.20;;;;;;;-146.27;74.74;80899.97;5027118;28;20057;-67
2023/06/19 00:59:57;;;;;;;5.82;2.42;;;;;;;-146.27;75.21;80924.06;5027995;28;20031;-67
2023/06/19 01:02:23;;;;;;;3.13;2.08;;;;;;;-146.27;75.52;80928.06;5028907;28;20025;-67
2023/06/19 01:04:52;;;;;;;3.95;2.40;;;;;;;-146.27;75.72;80924.06;5032726;28;20029;-67
2023/06/19 01:07:25;;;;;;;4.25;2.50;;;;;;;-146.27;76.36;80972.25;5029772;28;20537;-69
2023/06/19 01:09:59;;;;;;;4.88;2.67;;;;;;;-146.27;76.62;80962.22;5027102;28;20038;-68
2023/06/19 01:12:33;;;;;;;3.10;2.38;;;;;;;-146.27;77.96;81030.47;5031353;28;20025;-69
2023/06/19 01:15:01;;;;;;;5.22;2.90;;;;;;;-146.27;77.97;80966.22;5028673;28;20382;-68
2023/06/19 01:17:29;;;;;;;4.15;2.50;;;;;;;-146.27;78.86;81000.34;5031008;28;20465;-69
2023/06/19 01:19:58;;;;;;;4.40;2.60;;;;;;;-146.27;79.41;81012.41;5030970;28;20033;-68
2023/06/19 01:22:27;;;;;;;5.78;3.40;;;;;;;-146.27;79.70;81012.41;5028257;28;20022;-68
2023/06/19 01:24:52;;;;;;;6.88;3.30;;;;;;;-146.27;80.36;80986.31;5031396;28;20040;-68
2023/06/19 01:27:18;;;;;;;6.63;3.92;;;;;;;-146.27;82.54;81038.50;5030859;28;20412;-69
2023/06/19 01:29:43;;;;;;;6.13;4.60;;;;;;;-146.27;84.39;81118.84;5030450;28;20114;-68
2023/06/19 01:32:15;;;;;;;6.97;4.38;;;;;;;-146.27;84.52;81082.69;5029548;28;20323;-68
2023/06/19 01:34:41;;;;;;;6.10;5.07;;;;;;;-146.27;85.45;81146.97;5031330;28;20018;-67
2023/06/19 01:37:10;;;;;;;5.95;4.60;;;;;;;-146.27;85.99;81157.00;5028752;28;20418;-68
2023/06/19 01:39:36;;;;;;;7.15;5.30;;;;;;;-146.27;86.43;81173.06;5027608;28;20034;-68
2023/06/19 01:42:03;;;;;;;9.18;6.30;;;;;;;-146.27;87.59;81207.19;5032720;28;20025;-67
2023/06/19 01:44:28;;;;;;;7.50;6.70;;;;;;;-146.27;88.14;81249.38;5029664;28;20025;-68
2023/06/19 01:46:54;;;;;;;9.75;6.82;;;;;;;-146.27;87.52;81179.09;5031808;28;20358;-67
2023/06/19 01:49:20;;;;;;;8.15;6.10;;;;;;;-146.27;86.59;81148.97;5026568;28;20115;-67
2023/06/19 01:51:45;;;;;;;10.10;6.82;;;;;;;-146.27;86.54;81118.84;5031520;28;20029;-67
2023/06/19 01:54:10;;;;;;;10.27;6.85;;;;;;;-146.27;87.17;81163.03;5028506;28;20349;-67
2023/06/19 01:56:37;;;;;;;12.13;6.80;;;;;;;-146.27;86.76;81128.88;5031179;28;20112;-67
2023/06/19 01:59:02;;;;;;;9.77;6.50;;;;;;;-146.27;86.85;81150.97;5029978;28;20456;-67
2023/06/19 02:01:27;;;;;;;12.00;6.40;;;;;;;-146.27;86.90;81136.91;5028184;28;20057;-67
2023/06/19 02:03:53;;;;;;;10.95;7.95;;;;;;;-146.27;86.86;81134.91;5032108;28;20037;-67
2023/06/19 02:06:18;;;;;;;8.52;7.45;;;;;;;-146.27;86.62;81102.78;5031652;28;20657;-68
2023/06/19 02:08:44;;;;;;;10.98;7.53;;;;;;;-146.27;86.89;81128.88;5028115;28;20033;-68
2023/06/19 02:11:09;;;;;;;11.90;7.97;;;;;;;-146.27;86.29;81110.81;5027132;28;20051;-67
2023/06/19 02:13:34;;;;;;;10.02;8.02;;;;;;;-146.27;86.86;81138.91;5028645;28;20069;-69
2023/06/19 02:16:00;;;;;;;9.82;7.38;;;;;;;-146.27;86.73;81110.81;5027343;28;20071;-68
2023/06/19 02:18:25;;;;;;;11.73;7.63;;;;;;;-146.27;86.60;81106.78;5029115;28;20094;-69
2023/06/19 02:20:51;;;;;;;11.60;9.38;;;;;;;-146.27;86.54;81092.72;5028061;28;20435;-69
2023/06/19 02:23:16;;;;;;;18.27;12.95;;;;;;;-146.27;87.71;81122.84;5029846;28;20029;-68
2023/06/19 02:25:42;;;;;;;19.42;13.18;;;;;;;-146.27;88.32;81098.75;5029283;28;20375;-68
2023/06/19 02:28:07;;;;;;;19.42;13.43;;;;;;;-146.27;88.00;81118.84;5030013;28;20084;-68
2023/06/19 02:30:32;;;;;;;24.83;16.45;;;;;;;-146.27;88.94;81132.91;5027149;28;20037;-70
2023/06/19 02:32:58;;;;;;;24.88;16.52;;;;;;;-146.27;89.70;81134.91;5028151;28;20029;-70
2023/06/19 02:35:23;;;;;;;23.40;16.15;;;;;;;-146.27;89.47;81080.69;5029095;28;20486;-69
2023/06/19 02:37:48;;;;;;;23.15;17.75;;;;;;;-146.27;91.06;81148.97;5030500;28;20029;-69
2023/06/19 02:40:14;;;;;;;26.80;17.05;;;;;;;-146.27;91.45;81122.84;5025901;28;20037;-69
2023/06/19 02:42:40;;;;;;;27.27;18.13;;;;;;;-146.27;92.50;81118.84;5029602;28;20061;-70
2023/06/19 02:45:05;;;;;;;33.65;21.30;;;;;;;-146.27;94.13;81229.28;5027703;28;20029;-70
2023/06/19 02:47:31;;;;;;;36.25;21.02;;;;;;;-146.27;94.51;81195.16;5030673;28;20021;-69
2023/06/19 02:50:02;;;;;;;37.72;22.98;;;;;;;-146.27;95.00;81211.22;5029367;28;20131;-69
2023/06/19 02:52:27;;;;;;;41.78;23.15;;;;;;;-146.27;94.81;81191.13;5030393;28;20025;-69
2023/06/19 02:54:53;;;;;;;35.22;22.98;;;;;;;-146.27;96.94;81315.66;5030414;28;20028;-69
2023/06/19 02:57:19;;;;;;;39.22;25.60;;;;;;;-146.27;97.57;81255.41;5026768;28;20065;-69
2023/06/19 02:59:45;;;;;;;32.97;22.63;;;;;;;-146.27;98.87;81263.44;5028585;28;20461;-69
2023/06/19 03:02:11;;;;;;;33.50;22.38;;;;;;;-146.27;99.51;81291.53;5028854;28;20436;-68
2023/06/19 03:04:36;;;;;;;36.10;21.73;;;;;;;-146.27;100.00;81339.75;5028834;28;20036;-69
2023/06/19 03:07:02;;;;;;;30.73;18.58;;;;;;;-146.27;100.00;81375.91;5030019;28;20029;-68
2023/06/19 03:09:28;;;;;;;18.45;12.20;;;;;;;-146.27;100.00;81460.25;5027580;28;20514;-68
2023/06/19 03:11:54;;;;;;;13.77;10.25;;;;;;;-146.27;100.00;81466.28;5031110;28;20041;-68
2023/06/19 03:14:19;;;;;;;14.70;10.30;;;;;;;-146.27;100.00;81512.47;5038473;28;20032;-68
2023/06/19 03:16:45;;;;;;;13.10;9.88;;;;;;;-146.27;100.00;81508.44;5030115;28;20473;-69
2023/06/19 03:19:10;;;;;;;13.20;9.65;;;;;;;-146.27;100.00;81492.38;5029634;28;20106;-69
2023/06/19 03:21:35;;;;;;;18.20;13.32;;;;;;;-146.27;100.00;81500.41;5027020;28;20099;-68
2023/06/19 03:24:01;;;;;;;24.65;15.73;;;;;;;-146.27;100.00;81532.53;5029561;28;20029;-69
2023/06/19 03:26:26;;;;;;;29.08;19.45;;;;;;;-146.27;100.00;81538.56;5039053;28;20080;-68
2023/06/19 03:28:52;;;;;;;32.28;19.95;;;;;;;-146.27;100.00;81544.59;5047622;28;20033;-68
2023/06/19 03:31:18;;;;;;;36.92;21.23;;;;;;;-146.27;100.00;81548.59;5029733;28;20051;-69
2023/06/19 03:33:43;;;;;;;51.35;27.38;;;;;;;-146.27;100.00;81544.59;5028407;28;20189;-68
2023/06/19 03:36:08;;;;;;;49.83;27.95;;;;;;;-146.27;100.00;81558.66;5029258;28;20028;-68
2023/06/19 03:38:34;;;;;;;48.17;26.73;;;;;;;-146.27;100.00;81552.63;5028696;28;20060;-69
2023/06/19 03:41:00;;;;;;;43.58;24.13;;;;;;;-146.27;100.00;81628.94;5027884;28;20033;-68
2023/06/19 03:43:25;;;;;;;48.28;29.40;;;;;;;-146.27;100.00;81616.91;5026545;28;20159;-69
2023/06/19 03:45:50;;;;;;;50.60;28.25;;;;;;;-146.27;100.00;81592.78;5028824;28;20397;-69
2023/06/19 03:48:17;;;;;;;49.33;26.38;;;;;;;-146.27;100.00;81626.94;5027384;28;20028;-69
2023/06/19 03:50:42;;;;;;;47.20;25.20;;;;;;;-146.27;100.00;81645.00;5026939;28;20084;-69
2023/06/19 03:53:08;;;;;;;47.40;24.02;;;;;;;-146.27;100.00;81568.69;5028350;28;20033;-69
2023/06/19 03:55:33;;;;;;;32.47;19.50;;;;;;;-146.27;100.00;81632.97;5027280;28;20087;-69
2023/06/19 03:57:59;;;;;;;35.78;20.20;;;;;;;-146.27;100.00;81624.94;5028882;28;20104;-68
2023/06/19 04:00:24;;;;;;;30.83;17.40;;;;;;;-146.27;100.00;81590.78;5028245;28;20026;-69
2023/06/19 04:02:50;;;;;;;23.15;15.27;;;;;;;-146.27;100.00;81673.13;5024032;28;20489;-69
2023/06/19 04:05:15;;;;;;;23.98;15.95;;;;;;;-146.27;100.00;81659.06;5027982;28;20029;-68
2023/06/19 04:07:41;;;;;;;23.70;12.57;;;;;;;-146.27;100.00;81669.13;5027510;28;20086;-69
2023/06/19 04:10:07;;;;;;;18.10;12.23;;;;;;;-146.27;100.00;81647.03;5026293;28;20353;-69
2023/06/19 04:12:32;;;;;;;17.52;11.77;;;;;;;-146.27;100.00;81614.88;5028044;28;20029;-69
2023/06/19 04:14:58;;;;;;;18.23;11.05;;;;;;;-146.27;100.00;81620.91;5028518;28;20466;-69
2023/06/19 04:17:23;;;;;;;15.43;10.23;;;;;;;-146.27;100.00;81628.94;5028392;28;20470;-68
2023/06/19 04:19:48;;;;;;;18.10;9.77;;;;;;;-146.27;100.00;81643.00;5025319;28;20444;-69
2023/06/19 04:22:14;;;;;;;17.63;9.77;;;;;;;-146.27;100.00;81624.94;5026398;28;20037;-69
2023/06/19 04:24:39;;;;;;;15.68;9.80;;;;;;;-146.27;100.00;81628.94;5026770;28;20116;-70
2023/06/19 04:27:04;;;;;;;11.55;8.98;;;;;;;-146.27;100.00;81626.94;5028273;28;20045;-70
2023/06/19 04:29:31;;;;;;;14.10;10.07;;;;;;;-146.27;100.00;81673.13;5027231;28;20037;-69
2023/06/19 04:31:58;;;;;;;14.25;8.68;;;;;;;-146.27;100.00;81673.13;5026716;28;20032;-69
2023/06/19 04:34:23;;;;;;;14.52;9.60;;;;;;;-146.27;100.00;81709.28;5032380;28;20365;-69
2023/06/19 04:36:49;;;;;;;17.35;10.60;;;;;;;-146.27;100.00;81673.13;5030641;28;20309;-69
2023/06/19 04:39:15;;;;;;;19.23;10.88;;;;;;;-146.27;100.00;81673.13;5024477;28;20029;-68
2023/06/19 04:41:43;;;;;;;18.25;11.90;;;;;;;-146.27;100.00;81681.16;5025912;28;22332;-69
2023/06/19 04:44:09;;;;;;;20.00;11.70;;;;;;;-146.27;100.00;81620.91;5030961;28;20029;-69
2023/06/19 04:46:34;;;;;;;15.13;10.57;;;;;;;-146.27;100.00;81636.97;5031207;28;20029;-68
2023/06/19 04:49:00;;;;;;;18.92;11.88;;;;;;;-146.27;100.00;81683.19;5032248;28;20060;-69
2023/06/19 04:51:26;;;;;;;18.23;11.32;;;;;;;-146.27;100.00;81669.13;5028377;28;20083;-67
2023/06/19 04:53:51;;;;;;;16.23;10.82;;;;;;;-146.27;100.00;81681.16;5031681;28;20388;-68
2023/06/19 04:56:17;;;;;;;18.40;11.65;;;;;;;-146.27;100.00;81713.31;5022062;28;20168;-69
2023/06/19 04:58:48;;;;;;;20.10;11.98;;;;;;;-146.27;100.00;81737.41;5027778;28;20088;-68
2023/06/19 05:01:16;;;;;;;19.33;12.00;;;;;;;-146.27;100.00;81677.16;5024322;28;20038;-68
2023/06/19 05:03:47;;;;;;;18.67;12.70;;;;;;;-146.27;100.00;81661.09;5024281;28;20091;-69
2023/06/19 05:06:12;;;;;;;17.48;12.25;;;;;;;-146.27;100.00;81661.09;5020323;28;20022;-68
2023/06/19 05:08:38;;;;;;;19.33;11.85;;;;;;;-146.27;100.00;81675.16;5019119;28;20044;-68
2023/06/19 05:11:04;;;;;;;17.05;10.65;;;;;;;-146.27;100.00;81735.41;5024711;28;20295;-69
2023/06/19 05:13:29;;;;;;;18.38;11.57;;;;;;;-146.27;100.00;81701.25;5027118;28;20118;-68
2023/06/19 05:15:56;;;;;;;17.15;11.63;;;;;;;-146.27;100.00;81733.38;5025984;28;20033;-68
2023/06/19 05:18:22;;;;;;;19.20;12.30;;;;;;;-146.27;100.00;81761.50;5023316;28;20025;-68
2023/06/19 05:20:47;;;;;;;18.40;12.38;;;;;;;-146.27;100.00;81735.41;5028156;28;20034;-68
2023/06/19 05:23:12;;;;;;;16.90;12.25;;;;;;;-146.27;100.00;81733.38;5018891;28;20056;-68
2023/06/19 05:25:38;;;;;;;21.05;13.20;;;;;;;-146.27;100.00;81709.28;5029542;28;20028;-68
2023/06/19 05:28:03;;;;;;;31.48;14.80;;;;;;;-146.27;100.00;81703.25;5029826;28;20040;-67
2023/06/19 05:30:29;;;;;;;22.83;14.02;;;;;;;-146.27;100.00;81628.94;5025414;28;20029;-68
2023/06/19 05:32:54;;;;;;;24.23;15.40;;;;;;;-146.27;99.85;81622.91;5016681;28;20203;-67
2023/06/19 05:35:20;;;;;;;21.20;14.93;;;;;;;-146.27;99.43;81681.16;5028111;28;20030;-67
2023/06/19 05:37:45;;;;;;;23.55;14.90;;;;;;;-146.27;99.06;81695.22;5026008;28;20087;-67
2023/06/19 05:40:11;;;;;;;25.08;15.25;;;;;;;-146.27;99.11;81685.19;5029175;28;20453;-67
2023/06/19 05:42:36;;;;;;;23.02;15.68;;;;;;;-146.27;98.81;81657.06;5024297;28;20053;-65
2023/06/19 05:45:03;;;;;;;24.25;14.85;;;;;;;-146.27;98.45;81765.53;5024897;28;20036;-66
2023/06/19 05:47:30;;;;;;;25.17;15.10;;;;;;;-146.27;98.43;81727.38;5028793;28;20503;-68
2023/06/19 05:49:56;;;;;;;22.58;14.45;;;;;;;-146.27;98.46;81763.50;5028758;28;20025;-68
2023/06/19 05:52:21;;;;;;;24.15;15.05;;;;;;;-146.27;98.43;81825.78;5030930;28;20029;-68
2023/06/19 05:54:47;;;;;;;24.58;16.77;;;;;;;-146.27;98.25;81769.53;5022219;28;20434;-68
2023/06/19 05:57:15;;;;;;;33.88;17.67;;;;;;;-146.27;98.32;81791.63;5027312;28;20037;-70
2023/06/19 05:59:41;;;;;;;26.15;18.33;;;;;;;-146.27;98.30;81789.63;5024545;28;20025;-68
2023/06/19 06:02:07;;;;;;;29.70;18.83;;;;;;;-146.27;98.18;81709.28;5033567;28;20037;-68
2023/06/19 06:04:33;;;;;;;30.77;19.02;;;;;;;-146.27;97.89;81735.41;5025888;28;20058;-67
2023/06/19 06:06:58;;;;;;;28.17;19.38;;;;;;;-146.27;97.21;81805.69;5026486;28;20194;-69
2023/06/19 06:09:24;;;;;;;29.55;18.55;;;;;;;-146.27;97.99;81779.59;5027923;28;20053;-68
2023/06/19 06:11:49;;;;;;;27.23;18.38;;;;;;;-146.27;98.34;81721.34;5030270;28;20132;-67
2023/06/19 06:14:15;;;;;;;29.05;19.90;;;;;;;-146.27;97.70;81819.75;5031095;28;20053;-67
2023/06/19 06:16:40;;;;;;;26.70;19.45;;;;;;;-146.27;97.56;81797.66;5029431;28;20033;-69
2023/06/19 06:19:07;;;;;;;30.27;19.98;;;;;;;-146.27;97.59;81765.53;5030550;28;20040;-69
2023/06/19 06:21:34;;;;;;;27.25;18.73;;;;;;;-146.27;97.73;81779.59;5029521;28;20032;-68
2023/06/19 06:24:00;;;;;;;32.10;18.58;;;;;;;-146.27;97.83;81725.34;5030078;28;20206;-68
2023/06/19 06:26:27;;;;;;;35.00;16.65;;;;;;;-146.27;97.62;81759.50;5029927;28;20476;-68
2023/06/19 06:28:53;;;;;;;26.95;17.08;;;;;;;-146.27;96.71;81769.53;5027595;28;20025;-68
2023/06/19 06:31:18;;;;;;;24.35;16.55;;;;;;;-146.27;97.09;81761.50;5030715;28;20025;-68
2023/06/19 06:33:43;;;;;;;30.02;17.20;;;;;;;-146.27;96.60;81769.53;5028288;28;20053;-68
2023/06/19 06:36:09;;;;;;;22.77;16.27;;;;;;;-146.27;96.48;81845.88;5026393;28;20029;-68
2023/06/19 06:38:34;;;;;;;29.67;17.85;;;;;;;-146.27;95.90;81799.66;5025563;28;20454;-69
2023/06/19 06:41:01;;;;;;;26.45;16.08;;;;;;;-146.27;96.17;81761.50;5027686;28;20048;-68
2023/06/19 06:43:26;;;;;;;26.48;16.25;;;;;;;-146.27;96.11;81775.56;5026082;28;20031;-67
2023/06/19 06:45:52;;;;;;;29.33;17.13;;;;;;;-146.27;95.66;81777.56;5027887;28;20108;-68
2023/06/19 06:48:17;;;;;;;25.77;16.23;;;;;;;-146.27;95.50;81815.72;5028242;28;20061;-67
2023/06/19 06:50:43;;;;;;;24.40;14.65;;;;;;;-146.27;95.43;81765.53;5029551;28;20083;-67
2023/06/19 06:53:08;;;;;;;24.02;14.80;;;;;;;-146.27;95.41;81777.56;5020843;28;20029;-67
2023/06/19 06:55:34;;;;;;;24.42;14.10;;;;;;;-146.27;95.65;81797.66;5029528;28;20025;-68
2023/06/19 06:57:59;;;;;;;23.17;15.18;;;;;;;-146.27;95.31;81805.69;5028744;28;20033;-68
2023/06/19 07:00:24;;;;;;;24.85;14.80;;;;;;;-146.27;94.80;81781.59;5028854;28;20036;-67
2023/06/19 07:02:51;;;;;;;27.65;14.52;;;;;;;-146.27;94.96;81801.69;5025977;28;20389;-68
2023/06/19 07:05:16;;;;;;;18.20;12.65;;;;;;;-146.27;94.36;81777.56;5030928;28;20026;-68
2023/06/19 07:07:41;;;;;;;23.23;13.77;;;;;;;-146.27;94.18;81733.38;5030265;28;20024;-68
2023/06/19 07:10:08;;;;;;;22.08;13.02;;;;;;;-146.27;93.33;81733.38;5030649;28;20045;-68
2023/06/19 07:12:34;;;;;;;20.50;13.05;;;;;;;-146.27;92.45;81749.47;5030111;28;20034;-68
2023/06/19 07:14:59;;;;;;;17.50;12.45;;;;;;;-146.27;92.56;81765.53;5030771;28;20025;-68
2023/06/19 07:17:24;;;;;;;22.88;13.00;;;;;;;-146.27;92.50;81693.22;5028845;28;20102;-68
2023/06/19 07:19:50;;;;;;;22.40;12.50;;;;;;;-146.27;91.48;81669.13;5028590;28;20029;-68
2023/06/19 07:22:17;;;;;;;22.40;11.27;;;;;;;-146.27;91.02;81663.09;5027843;28;20112;-68
2023/06/19 07:24:42;;;;;;;17.35;11.30;;;;;;;-146.27;90.92;81659.06;5029913;28;20151;-68
2023/06/19 07:27:07;;;;;;;19.80;11.23;;;;;;;-146.27;90.79;81681.16;5030769;28;20056;-68
2023/06/19 07:29:33;;;;;;;16.75;11.25;;;;;;;-146.27;90.37;81628.94;5029798;28;20033;-68
2023/06/19 07:32:02;;;;;;;15.73;10.98;;;;;;;-146.27;90.05;81588.78;5028874;28;20040;-68
2023/06/19 07:34:27;;;;;;;19.58;11.60;;;;;;;-146.27;90.29;81636.97;5030352;28;20021;-68
2023/06/19 07:36:52;;;;;;;17.90;10.32;;;;;;;-146.27;89.67;81600.84;5028022;28;20033;-68
2023/06/19 07:39:19;;;;;;;21.90;12.90;;;;;;;-146.27;89.62;81568.69;5021159;28;20041;-68
2023/06/19 07:41:45;;;;;;;17.15;11.38;;;;;;;-146.27;89.49;81552.63;5029596;28;20037;-66
2023/06/19 07:44:11;;;;;;;20.40;12.23;;;;;;;-146.27;88.94;81562.66;5030216;28;20018;-68
2023/06/19 07:46:36;;;;;;;17.73;11.75;;;;;;;-146.27;89.35;81548.59;5029629;28;20137;-68
2023/06/19 07:49:01;;;;;;;15.52;11.40;;;;;;;-146.27;89.06;81522.50;5028828;28;20033;-69
2023/06/19 07:51:27;;;;;;;18.75;12.20;;;;;;;-146.27;89.63;81480.31;5030152;28;20025;-68
2023/06/19 07:53:52;;;;;;;19.75;11.40;;;;;;;-146.27;88.52;81500.41;5030344;28;20079;-68
2023/06/19 07:56:17;;;;;;;19.90;12.07;;;;;;;-146.27;87.61;81546.59;5028163;28;20025;-69
2023/06/19 07:58:43;;;;;;;20.60;11.98;;;;;;;-146.27;87.50;81596.81;5030288;28;20561;-69
2023/06/19 08:01:08;;;;;;;27.98;12.15;;;;;;;-146.27;87.60;81548.59;5030066;28;20026;-71
2023/06/19 08:03:34;;;;;;;17.05;12.18;;;;;;;-146.27;87.54;81516.47;5028631;28;20018;-70
2023/06/19 08:05:59;;;;;;;21.05;11.90;;;;;;;-146.27;88.26;81540.56;5029076;28;20041;-68
2023/06/19 08:08:24;;;;;;;18.40;12.32;;;;;;;-146.27;87.94;81560.66;5031244;28;20401;-69
2023/06/19 08:10:50;;;;;;;19.38;12.60;;;;;;;-146.27;88.04;81580.75;5032153;28;20515;-71
2023/06/19 08:13:15;;;;;;;15.60;11.60;;;;;;;-146.27;88.32;81616.91;5034112;28;20071;-71
2023/06/19 08:15:40;;;;;;;18.35;11.52;;;;;;;-146.27;88.11;81556.66;5032707;28;20017;-69
2023/06/19 08:18:06;;;;;;;21.92;12.38;;;;;;;-146.27;88.27;81548.59;5033973;28;20487;-69
2023/06/19 08:20:31;;;;;;;20.77;11.32;;;;;;;-146.27;88.14;81480.31;5031069;28;20052;-69
2023/06/19 08:22:57;;;;;;;16.60;11.52;;;;;;;-146.27;87.67;81462.25;5023329;28;20034;-69
2023/06/19 08:25:22;;;;;;;17.90;11.43;;;;;;;-146.27;86.42;81472.28;5036107;28;20450;-71
2023/06/19 08:27:48;;;;;;;19.55;10.70;;;;;;;-146.27;85.96;81444.19;5030773;28;20056;-69
2023/06/19 08:30:13;;;;;;;18.40;10.75;;;;;;;-146.27;87.80;81375.91;5031848;28;20539;-70
2023/06/19 08:32:39;;;;;;;19.73;11.07;;;;;;;-146.27;86.54;81335.72;5030562;28;20124;-69
2023/06/19 08:35:10;;;;;;;17.60;11.60;;;;;;;-146.27;85.45;81418.06;5029696;28;20025;-70
2023/06/19 08:37:36;;;;;;;19.15;10.82;;;;;;;-146.27;86.58;81404.00;5015657;28;20026;-71
2023/06/19 08:40:06;;;;;;;20.33;10.13;;;;;;;-146.27;86.75;81456.22;5019992;28;20087;-69
2023/06/19 08:42:31;;;;;;;15.40;10.02;;;;;;;-146.27;87.02;81420.06;5030215;28;20025;-70
2023/06/19 08:44:57;;;;;;;16.67;9.88;;;;;;;-146.27;85.26;81387.94;5034553;28;20029;-68
2023/06/19 08:47:22;;;;;;;15.68;9.18;;;;;;;-146.27;85.29;81319.66;5043480;28;20095;-70
2023/06/19 08:49:49;;;;;;;14.20;9.20;;;;;;;-146.27;84.10;81299.59;5042103;28;20036;-70
2023/06/19 08:52:14;;;;;;;15.80;8.65;;;;;;;-146.27;83.51;81339.75;5035036;28;20040;-69
2023/06/19 08:54:43;;;;;;;14.82;9.20;;;;;;;-146.27;83.18;81367.88;5036416;28;20104;-70
2023/06/19 08:57:09;;;;;;;15.70;8.82;;;;;;;-146.27;84.18;81307.63;5035439;28;20096;-70
2023/06/19 08:59:35;;;;;;;19.55;8.48;;;;;;;-146.27;83.53;81287.53;5043409;28;20075;-69
2023/06/19 09:02:00;;;;;;;16.25;9.07;;;;;;;-146.27;83.36;81175.06;5039094;28;20025;-69
2023/06/19 09:04:32;;;;;;;16.85;9.60;;;;;;;-146.27;82.47;81227.28;5036426;28;20079;-68
2023/06/19 09:07:02;;;;;;;15.93;10.15;;;;;;;-146.27;82.16;81241.34;5035971;28;20114;-71
2023/06/19 09:09:28;;;;;;;17.23;9.65;;;;;;;-146.27;82.89;81291.53;5034329;28;20032;-75
2023/06/19 09:12:00;;;;;;;12.68;8.63;;;;;;;-146.27;82.68;81299.59;5044545;28;20477;-69
2023/06/19 09:14:39;;;;;;;16.17;9.07;;;;;;;-146.27;81.50;81223.25;5036701;28;20021;-69
2023/06/19 09:17:07;;;;;;;14.02;8.60;;;;;;;-146.27;81.98;81211.22;5046135;28;20503;-69
2023/06/19 09:19:34;;;;;;;15.25;8.57;;;;;;;-146.27;81.54;81263.44;5030768;28;20086;-70
2023/06/19 09:22:07;;;;;;;12.98;8.30;;;;;;;-146.27;81.77;81207.19;5046731;28;20031;-71
2023/06/19 09:24:38;;;;;;;16.25;8.02;;;;;;;-146.27;80.83;81163.03;5035886;28;20093;-69
2023/06/19 09:27:18;;;;;;;13.65;7.72;;;;;;;-146.27;80.61;81179.09;5034113;28;20026;-69
2023/06/19 09:29:45;;;;;;;11.43;7.95;;;;;;;-146.27;79.99;81223.25;5043173;28;20089;-70
2023/06/19 09:32:22;;;;;;;10.90;7.43;;;;;;;-146.27;79.55;81231.31;5035617;28;20044;-70
2023/06/19 09:34:50;;;;;;;15.48;7.85;;;;;;;-146.27;79.58;81211.22;5018991;28;20116;-71
2023/06/19 09:37:25;;;;;;;11.45;7.57;;;;;;;-146.27;78.36;81163.03;5052306;28;20511;-69
2023/06/19 09:40:09;;;;;;;11.82;7.88;;;;;;;-146.27;78.84;81175.06;5038269;28;20485;-70
2023/06/19 09:42:35;;;;;;;14.50;7.70;;;;;;;-146.27;79.14;81195.16;5036146;28;20041;-70
2023/06/19 09:45:10;;;;;;;11.35;7.05;;;;;;;-146.27;79.60;81189.13;5046214;28;20025;-69
2023/06/19 09:47:54;;;;;;;12.35;7.10;;;;;;;-146.27;79.97;81104.78;5039118;28;20100;-72
2023/06/19 09:50:22;;;;;;;15.45;7.65;;;;;;;-146.27;79.80;81082.69;5044826;28;20475;-70
2023/06/19 09:52:51;;;;;;;13.10;7.68;;;;;;;-146.27;79.42;81086.72;5035794;28;20050;-71
2023/06/19 09:55:18;;;;;;;13.50;6.82;;;;;;;-146.27;78.37;81165.03;5039565;28;21204;-71
2023/06/19 09:57:45;;;;;;;12.07;7.05;;;;;;;-146.27;78.47;81114.81;5035799;28;20036;-71
2023/06/19 10:00:22;;;;;;;12.32;7.30;;;;;;;-146.27;78.46;81062.59;5034048;28;20025;-71
2023/06/19 10:02:48;;;;;;;11.32;7.40;;;;;;;-146.27;78.03;80958.19;5034475;28;20127;-72
2023/06/19 10:05:14;;;;;;;11.50;7.80;;;;;;;-146.27;74.91;80982.28;5041738;28;20090;-72
2023/06/19 10:07:45;;;;;;;9.20;6.13;;;;;;;-146.27;74.99;80853.78;5034743;28;20033;-70
2023/06/19 10:10:21;;;;;;;12.07;6.00;;;;;;;-146.27;74.55;80910.00;5045375;28;20045;-71
2023/06/19 10:12:47;;;;;;;11.90;6.38;;;;;;;-146.27;73.14;80889.91;5027164;28;20052;-70
2023/06/19 10:15:15;;;;;;;11.85;6.82;;;;;;;-146.27;74.22;80938.09;5030516;28;20477;-70
2023/06/19 10:17:49;;;;;;;11.70;6.95;;;;;;;-146.27;74.96;80944.13;5029295;28;20044;-71
2023/06/19 10:20:37;;;;;;;9.73;6.60;;;;;;;-146.27;74.91;80843.72;5031330;28;20065;-71
2023/06/19 10:23:13;;;;;;;8.20;5.65;;;;;;;-146.27;73.38;80717.22;5031765;28;20560;-71
2023/06/19 10:25:43;;;;;;;13.32;7.13;;;;;;;-146.27;73.01;80677.06;5041079;28;20049;-71
2023/06/19 10:28:45;;;;;;;9.45;6.18;;;;;;;-146.27;70.95;80731.28;5023109;28;20037;-71
2023/06/19 10:31:10;;;;;;;15.18;6.70;;;;;;;-146.27;72.20;80699.16;5019221;28;20029;-70
2023/06/19 10:33:40;;;;;;;10.60;6.25;;;;;;;-146.27;71.13;80711.19;5028731;28;20021;-71
2023/06/19 10:36:23;;;;;;;11.60;5.93;;;;;;;-146.27;72.30;80652.97;5037070;28;20112;-71
2023/06/19 10:38:49;;;;;;;11.65;6.05;;;;;;;-146.27;69.89;80701.16;5025284;28;20033;-70
2023/06/19 10:41:19;;;;;;;8.10;6.07;;;;;;;-146.27;70.41;80789.50;5028207;28;20055;-70
2023/06/19 10:44:12;;;;;;;9.95;5.70;;;;;;;-146.27;71.58;80735.31;5024937;28;20029;-71
2023/06/19 10:46:38;;;;;;;10.20;5.63;;;;;;;-146.27;70.86;80725.25;5038224;28;20029;-71
2023/06/19 10:49:05;;;;;;;9.40;5.32;;;;;;;-146.27;69.20;80725.25;5029393;28;20032;-69
2023/06/19 10:51:34;;;;;;;8.57;5.13;;;;;;;-146.27;68.19;80695.13;5031296;28;20025;-70
2023/06/19 10:53:59;;;;;;;8.95;5.93;;;;;;;-146.27;69.24;80626.88;5023318;28;20029;-71
2023/06/19 10:56:25;;;;;;;11.77;5.38;;;;;;;-146.27;68.69;80522.47;5046958;28;20454;-72
2023/06/19 10:59:18;;;;;;;8.98;5.30;;;;;;;-146.27;65.89;80448.16;5046200;28;20385;-71
2023/06/19 11:01:45;;;;;;;7.53;5.40;;;;;;;-146.27;65.04;80468.25;5016052;28;20050;-73
2023/06/19 11:04:12;;;;;;;12.07;5.47;;;;;;;-146.27;66.06;80375.88;5037176;28;20039;-70